Time;durP1;ratioP1;P1;durP2;ratioP2;P2;SDS_P1;SDS_P2;PMS_P1;PMS_P2;Temp;Humidity;BMP_temperature;BMP_pressure;BME280_temperature;BME280_humidity;BME280_pressure;Samples;Min_cycle;Max_cycle;Signal;HPM_P1;HPM_P2
2023/03/11 00:06:08;;;;;;;2.75;1.33;;;;;;;16.07;43.30;100779.41;4958178;29;20026;-84
2023/03/11 00:08:34;;;;;;;2.67;1.50;;;;;;;16.08;43.52;100774.22;4957340;29;20036;-84
2023/03/11 00:14:22;;;;;;;2.38;1.30;;;;;;;16.08;43.40;100771.63;4946717;29;20113;-79
2023/03/11 00:16:49;;;;;;;4.22;1.30;;;;;;;16.09;43.37;100782.88;4939449;28;20086;-79
2023/03/11 00:19:14;;;;;;;3.10;1.25;;;;;;;16.07;43.22;100775.13;4978109;28;20034;-78
2023/03/11 00:21:39;;;;;;;2.10;1.10;;;;;;;16.06;43.39;100773.38;4959675;28;20035;-79
2023/03/11 00:24:05;;;;;;;2.95;1.40;;;;;;;16.07;43.32;100782.00;4960239;28;20026;-79
2023/03/11 00:26:31;;;;;;;2.55;1.23;;;;;;;16.06;43.49;100781.16;4976686;28;20034;-79
2023/03/11 00:28:56;;;;;;;2.53;1.35;;;;;;;16.04;43.32;100791.53;4977673;28;20030;-79
2023/03/11 00:31:22;;;;;;;3.15;1.25;;;;;;;16.04;43.33;100801.91;4944053;28;20037;-79
2023/03/11 00:33:47;;;;;;;1.95;1.20;;;;;;;16.05;43.32;100797.63;4975536;28;20097;-79
2023/03/11 00:36:23;;;;;;;3.10;1.40;;;;;;;16.03;43.45;100805.41;4975077;28;20058;-79
2023/03/11 00:38:49;;;;;;;2.83;1.30;;;;;;;16.04;42.93;100811.44;4974785;28;20023;-79
2023/03/11 00:41:15;;;;;;;3.70;1.38;;;;;;;16.07;43.17;100818.34;4974970;28;20071;-79
2023/03/11 00:43:41;;;;;;;2.72;1.40;;;;;;;16.05;43.25;100823.56;4958515;28;20050;-78
2023/03/11 00:46:07;;;;;;;3.53;1.42;;;;;;;16.03;43.15;100812.34;4974629;28;20023;-79
2023/03/11 00:48:33;;;;;;;2.00;1.13;;;;;;;16.01;43.25;100819.25;4974213;28;20034;-79
2023/03/11 00:50:58;;;;;;;2.15;1.15;;;;;;;16.01;43.18;100824.44;4974733;28;20090;-79
2023/03/11 00:53:23;;;;;;;3.45;1.38;;;;;;;16.02;43.24;100824.41;4958296;28;20585;-79
2023/03/11 00:55:50;;;;;;;2.75;1.38;;;;;;;16.01;43.08;100829.63;4959395;28;20073;-79
2023/03/11 00:58:16;;;;;;;2.83;1.20;;;;;;;16.02;43.18;100824.41;4965018;28;20023;-79
2023/03/11 01:00:42;;;;;;;2.28;1.30;;;;;;;16.01;43.08;100832.22;4981143;28;20055;-78
2023/03/11 01:03:08;;;;;;;3.28;1.40;;;;;;;15.99;43.16;100829.63;4977848;28;20047;-79
2023/03/11 01:05:34;;;;;;;2.85;1.40;;;;;;;15.99;43.34;100836.56;4978400;28;20110;-79
2023/03/11 01:08:00;;;;;;;2.05;1.33;;;;;;;15.99;43.29;100831.38;4976855;28;20077;-78
2023/03/11 01:10:27;;;;;;;2.10;1.30;;;;;;;15.96;43.15;100841.75;4976708;28;20093;-78
2023/03/11 01:12:52;;;;;;;2.35;1.40;;;;;;;15.99;43.33;100845.22;4976144;28;20026;-78
2023/03/11 01:15:25;;;;;;;2.78;1.30;;;;;;;15.99;43.27;100845.22;4977152;28;20038;-79
2023/03/11 01:17:51;;;;;;;2.70;1.40;;;;;;;16.00;42.93;100846.94;4978489;28;20049;-78
2023/03/11 01:20:17;;;;;;;3.53;1.20;;;;;;;15.99;42.99;100850.41;4946905;28;20546;-79
2023/03/11 01:22:42;;;;;;;3.00;1.20;;;;;;;15.99;43.44;100845.22;4962353;28;20034;-78
2023/03/11 01:25:12;;;;;;;1.98;1.10;;;;;;;16.00;43.30;100854.75;4979744;28;20102;-79
2023/03/11 01:27:37;;;;;;;1.85;1.15;;;;;;;16.01;43.20;100850.41;4979285;28;20027;-78
2023/03/11 01:30:03;;;;;;;2.40;1.35;;;;;;;16.01;43.32;100859.03;4961983;28;20037;-78
2023/03/11 01:32:29;;;;;;;1.73;1.00;;;;;;;16.02;42.94;100858.16;4978209;28;20042;-78
2023/03/11 01:34:55;;;;;;;3.17;1.40;;;;;;;15.99;42.99;100849.53;4978608;28;20054;-78
2023/03/11 01:37:22;;;;;;;2.10;1.20;;;;;;;16.00;43.19;100853.84;4981761;28;20049;-80
2023/03/11 01:39:48;;;;;;;2.30;1.20;;;;;;;16.00;42.95;100848.66;4984242;28;20054;-79
2023/03/11 01:42:13;;;;;;;2.97;1.25;;;;;;;15.98;42.99;100853.88;4981453;28;20027;-78
2023/03/11 01:44:39;;;;;;;2.35;0.95;;;;;;;15.99;42.86;100852.13;4965064;28;20030;-79
2023/03/11 01:47:04;;;;;;;3.17;1.30;;;;;;;16.00;43.01;100854.75;4979049;28;20037;-79
2023/03/11 01:49:29;;;;;;;2.42;1.30;;;;;;;15.99;42.89;100857.34;4980039;28;20031;-79
2023/03/11 01:52:02;;;;;;;2.10;1.10;;;;;;;16.00;43.04;100851.25;4968822;28;20038;-79
2023/03/11 01:54:34;;;;;;;1.80;0.95;;;;;;;16.01;42.86;100853.00;4983420;28;20080;-79
2023/03/11 01:57:04;;;;;;;2.10;1.00;;;;;;;16.00;42.81;100859.94;4982638;28;20046;-79
2023/03/11 01:59:35;;;;;;;2.90;1.30;;;;;;;16.01;42.79;100855.59;4979786;28;20026;-78
2023/03/11 02:02:18;;;;;;;2.67;1.10;;;;;;;15.99;42.80;100858.19;4978976;28;20056;-79
2023/03/11 02:04:45;;;;;;;1.85;1.08;;;;;;;15.98;42.74;100864.25;4978740;28;20051;-78
2023/03/11 02:07:11;;;;;;;1.63;0.90;;;;;;;16.01;42.84;100873.75;4978374;28;20067;-78
2023/03/11 02:09:37;;;;;;;2.25;1.10;;;;;;;16.01;42.92;100873.75;4978004;28;20027;-79
2023/03/11 02:12:04;;;;;;;2.58;1.20;;;;;;;16.00;42.47;100878.09;4961414;28;20381;-78
2023/03/11 02:14:30;;;;;;;2.22;1.00;;;;;;;16.00;42.97;100872.03;4977646;28;20058;-79
2023/03/11 02:16:57;;;;;;;2.97;1.38;;;;;;;15.98;42.89;100869.44;4978785;28;20057;-78
2023/03/11 02:19:31;;;;;;;2.10;1.00;;;;;;;15.97;42.80;100872.91;4977949;28;20027;-79
2023/03/11 02:21:57;;;;;;;1.85;1.00;;;;;;;15.97;42.95;100875.50;4978086;28;20034;-79
2023/03/11 02:24:59;;;;;;;1.60;1.00;;;;;;;15.97;42.67;100875.50;4961415;28;20114;-78
2023/03/11 02:27:29;;;;;;;2.35;0.90;;;;;;;15.98;42.89;100877.25;4993055;28;20367;-78
2023/03/11 02:29:57;;;;;;;1.63;0.90;;;;;;;15.97;42.76;100870.31;4976083;28;20042;-78
2023/03/11 02:32:23;;;;;;;1.95;1.10;;;;;;;15.97;42.72;100867.72;4976418;28;20381;-78
2023/03/11 02:34:48;;;;;;;1.52;0.90;;;;;;;16.00;42.74;100859.03;4976517;28;20045;-78
2023/03/11 02:37:15;;;;;;;1.75;1.10;;;;;;;15.98;42.72;100860.78;4976673;28;20038;-78
2023/03/11 02:39:43;;;;;;;1.73;0.88;;;;;;;15.98;42.68;100861.66;4960556;28;20469;-77
2023/03/11 02:42:27;;;;;;;2.75;1.00;;;;;;;16.00;42.63;100866.81;4977857;28;20544;-79
2023/03/11 02:45:11;;;;;;;1.95;0.90;;;;;;;15.99;42.73;100865.13;4976638;28;20019;-78
2023/03/11 02:47:37;;;;;;;1.70;1.00;;;;;;;16.00;42.70;100872.91;4976915;28;20031;-78
2023/03/11 02:50:03;;;;;;;1.52;0.80;;;;;;;15.99;42.66;100872.91;4976170;28;20062;-78
2023/03/11 02:52:32;;;;;;;1.85;0.98;;;;;;;15.99;42.63;100867.72;4976729;28;20390;-78
2023/03/11 02:54:57;;;;;;;2.20;1.00;;;;;;;15.98;42.58;100866.84;4976730;28;20477;-79
2023/03/11 02:57:23;;;;;;;1.67;0.88;;;;;;;15.99;42.53;100876.34;4960877;28;20035;-79
2023/03/11 02:59:48;;;;;;;2.50;0.90;;;;;;;15.98;42.59;100877.25;4979396;28;20552;-79
2023/03/11 03:02:14;;;;;;;1.27;0.77;;;;;;;16.00;42.38;100874.63;4966857;28;20051;-79
2023/03/11 03:04:39;;;;;;;1.05;0.65;;;;;;;15.97;42.64;100875.50;4979446;28;20066;-78
2023/03/11 03:07:05;;;;;;;1.92;0.90;;;;;;;15.99;42.63;100878.09;4978106;28;20050;-78
2023/03/11 03:09:31;;;;;;;2.28;0.90;;;;;;;15.98;42.46;100879.84;4979095;28;20065;-77
2023/03/11 03:11:56;;;;;;;1.45;0.73;;;;;;;15.98;42.63;100885.03;4959551;28;20030;-78
2023/03/11 03:14:22;;;;;;;1.02;0.60;;;;;;;15.97;42.51;100890.22;4959639;28;20027;-78
2023/03/11 03:16:47;;;;;;;1.55;0.80;;;;;;;15.97;42.72;100893.66;4976215;28;20058;-78
2023/03/11 03:19:13;;;;;;;1.52;0.75;;;;;;;16.00;42.61;100898.88;4959996;28;20034;-78
2023/03/11 03:21:39;;;;;;;1.70;0.80;;;;;;;15.98;42.52;100897.13;4976148;28;20027;-78
2023/03/11 03:24:05;;;;;;;2.15;0.90;;;;;;;15.99;42.31;100898.84;4976509;28;20019;-78
2023/03/11 03:26:31;;;;;;;1.65;0.90;;;;;;;15.99;42.65;100898.84;4960596;28;20473;-79
2023/03/11 03:28:56;;;;;;;1.75;0.70;;;;;;;16.00;42.51;100908.34;4961466;28;20026;-79
2023/03/11 03:31:22;;;;;;;1.00;0.60;;;;;;;15.98;42.40;100910.97;4982879;28;20107;-79
2023/03/11 03:33:50;;;;;;;1.35;0.80;;;;;;;15.99;42.49;100914.44;4949533;28;20047;-79
2023/03/11 03:36:16;;;;;;;1.38;0.80;;;;;;;16.00;42.26;100916.16;4978463;28;20034;-79
2023/03/11 03:38:41;;;;;;;1.60;0.80;;;;;;;15.99;42.41;100924.81;4945764;28;20037;-78
2023/03/11 03:41:10;;;;;;;1.30;0.65;;;;;;;15.97;42.13;100934.34;4977123;28;20456;-79
2023/03/11 03:43:35;;;;;;;1.48;0.70;;;;;;;15.96;42.48;100935.19;4960911;28;20026;-79
2023/03/11 03:46:03;;;;;;;1.25;0.60;;;;;;;15.94;42.54;100931.72;4960736;28;20093;-79
2023/03/11 03:48:29;;;;;;;1.02;0.70;;;;;;;15.96;42.45;100937.78;4976463;28;20073;-78
2023/03/11 03:50:55;;;;;;;1.48;0.68;;;;;;;15.93;42.40;100948.19;4960679;28;20118;-77
2023/03/11 03:53:20;;;;;;;1.40;0.70;;;;;;;15.93;42.51;100950.78;4976034;28;20034;-78
2023/03/11 03:55:46;;;;;;;1.33;0.70;;;;;;;15.91;42.58;100949.91;4958662;28;20130;-79
2023/03/11 03:58:12;;;;;;;1.25;0.70;;;;;;;15.91;42.54;100953.34;4958742;28;20093;-79
2023/03/11 04:00:38;;;;;;;1.05;0.70;;;;;;;15.94;42.45;100957.69;4958762;28;20059;-79
2023/03/11 04:03:05;;;;;;;1.83;0.70;;;;;;;15.91;41.98;100952.50;4975208;28;20023;-79
2023/03/11 04:05:30;;;;;;;1.05;0.50;;;;;;;15.90;42.29;100950.78;4975302;28;20377;-78
2023/03/11 04:07:56;;;;;;;1.70;0.63;;;;;;;15.91;42.48;100955.94;4958724;28;20034;-79
2023/03/11 04:10:21;;;;;;;1.77;0.70;;;;;;;15.90;42.34;100958.56;4942730;28;20520;-78
2023/03/11 04:12:47;;;;;;;1.50;0.70;;;;;;;15.89;42.25;100956.81;4974967;28;20030;-79
2023/03/11 04:15:12;;;;;;;1.15;0.60;;;;;;;15.88;42.23;100952.50;4991154;28;20026;-79
2023/03/11 04:17:38;;;;;;;1.15;0.60;;;;;;;15.86;42.17;100952.50;4958526;28;20065;-78
2023/03/11 04:20:06;;;;;;;1.38;0.70;;;;;;;15.86;42.34;100949.06;4975242;28;20043;-79
2023/03/11 04:22:33;;;;;;;1.38;0.60;;;;;;;15.86;42.26;100957.69;4981814;28;20481;-78
2023/03/11 04:24:58;;;;;;;1.08;0.50;;;;;;;15.88;42.25;100962.91;4969262;28;20039;-79
2023/03/11 04:27:26;;;;;;;1.20;0.65;;;;;;;15.89;42.19;100960.28;4987572;28;20085;-79
2023/03/11 04:29:52;;;;;;;1.23;0.70;;;;;;;15.89;42.41;100962.00;4983116;28;20035;-78
2023/03/11 04:32:17;;;;;;;1.95;0.70;;;;;;;15.87;42.27;100963.75;4963990;28;20033;-78
2023/03/11 04:34:43;;;;;;;1.00;0.70;;;;;;;15.87;42.75;100967.19;4978131;28;20038;-78
2023/03/11 04:37:08;;;;;;;1.75;0.80;;;;;;;15.86;42.35;100962.88;4992100;28;20026;-78
2023/03/11 04:39:33;;;;;;;0.80;0.57;;;;;;;15.84;42.60;100972.41;4977200;28;20529;-78
2023/03/11 04:41:59;;;;;;;1.17;0.65;;;;;;;15.84;42.54;100967.22;4976663;28;20034;-78
2023/03/11 04:44:24;;;;;;;1.75;0.60;;;;;;;15.84;42.36;100975.00;4976576;28;20023;-78
2023/03/11 04:46:50;;;;;;;1.17;0.70;;;;;;;15.84;42.57;100970.66;4959611;28;20121;-78
2023/03/11 04:49:15;;;;;;;1.98;0.70;;;;;;;15.83;42.65;100968.94;4943816;28;20062;-78
2023/03/11 04:51:41;;;;;;;1.30;0.63;;;;;;;15.84;42.46;100973.25;4977448;28;20038;-79
2023/03/11 04:54:07;;;;;;;1.20;0.68;;;;;;;15.86;42.50;100967.22;4979720;28;20038;-79
2023/03/11 04:56:32;;;;;;;0.82;0.60;;;;;;;15.86;42.33;100970.66;4979718;28;20027;-79
2023/03/11 04:58:58;;;;;;;1.50;0.65;;;;;;;15.86;42.54;100969.81;4963570;28;20030;-80
2023/03/11 05:01:23;;;;;;;1.50;0.60;;;;;;;15.83;42.61;100978.47;4978903;28;20057;-79
2023/03/11 05:03:49;;;;;;;1.77;0.77;;;;;;;15.83;42.19;100976.72;4963271;28;20081;-79
2023/03/11 05:06:14;;;;;;;1.38;0.60;;;;;;;15.84;42.50;100982.78;4962499;28;20073;-79
2023/03/11 05:08:40;;;;;;;1.42;0.70;;;;;;;15.83;42.49;100979.31;4979010;28;20030;-79
2023/03/11 05:11:06;;;;;;;1.10;0.70;;;;;;;15.81;42.77;100983.66;4979054;28;20034;-79
2023/03/11 05:13:31;;;;;;;0.75;0.50;;;;;;;15.83;42.49;100979.31;4994896;28;20038;-79
2023/03/11 05:15:57;;;;;;;1.52;0.50;;;;;;;15.80;42.50;100983.63;4963518;28;20039;-79
2023/03/11 05:18:22;;;;;;;1.45;0.60;;;;;;;15.83;42.65;100984.53;4981768;28;20031;-79
2023/03/11 05:20:48;;;;;;;1.23;0.60;;;;;;;15.82;42.75;100989.69;4978093;28;20027;-80
2023/03/11 05:23:13;;;;;;;0.98;0.63;;;;;;;15.81;42.57;100988.84;4977986;28;20093;-80
2023/03/11 05:25:39;;;;;;;1.42;0.60;;;;;;;15.79;42.71;100997.50;4978668;28;20042;-79
2023/03/11 05:28:04;;;;;;;1.08;0.57;;;;;;;15.79;42.60;101005.28;4963448;28;20086;-79
2023/03/11 05:30:33;;;;;;;1.15;0.57;;;;;;;15.80;42.56;101007.00;4978628;28;20035;-79
2023/03/11 05:32:58;;;;;;;2.38;0.82;;;;;;;15.81;42.78;101011.34;4962242;28;20038;-79
2023/03/11 05:35:24;;;;;;;1.13;0.57;;;;;;;15.81;42.62;101008.75;4979836;28;20023;-79
2023/03/11 05:37:49;;;;;;;1.00;0.50;;;;;;;15.81;42.59;101004.41;4962065;28;20031;-78
2023/03/11 05:40:16;;;;;;;1.42;0.70;;;;;;;15.79;42.73;101000.09;4977684;28;20049;-79
2023/03/11 05:42:41;;;;;;;1.75;0.60;;;;;;;15.79;42.59;101013.91;4965255;28;20177;-79
2023/03/11 05:45:07;;;;;;;0.77;0.40;;;;;;;15.79;42.77;101011.31;4969842;28;20122;-79
2023/03/11 05:47:33;;;;;;;0.90;0.55;;;;;;;15.79;42.77;101006.13;4980863;28;20030;-78
2023/03/11 05:49:59;;;;;;;0.93;0.50;;;;;;;15.80;42.63;101010.44;4980254;28;20035;-78
2023/03/11 05:52:24;;;;;;;1.33;0.70;;;;;;;15.79;42.67;101008.72;4962683;28;20043;-79
2023/03/11 05:54:51;;;;;;;2.00;0.60;;;;;;;15.81;42.55;101019.13;4979698;28;20114;-78
2023/03/11 05:57:17;;;;;;;0.73;0.50;;;;;;;15.81;42.70;101017.38;4982543;28;20034;-79
2023/03/11 05:59:43;;;;;;;1.40;0.60;;;;;;;15.81;42.79;101022.56;4987507;28;20504;-79
2023/03/11 06:02:08;;;;;;;1.65;0.52;;;;;;;15.81;42.69;101022.56;4969435;28;20105;-77
2023/03/11 06:04:34;;;;;;;0.85;0.50;;;;;;;15.80;42.76;101020.81;4968503;28;20449;-76
2023/03/11 06:06:59;;;;;;;1.10;0.63;;;;;;;15.81;42.53;101021.72;4965020;28;20035;-76
2023/03/11 06:09:25;;;;;;;0.93;0.50;;;;;;;15.83;42.57;101027.78;4979093;28;20030;-75
2023/03/11 06:11:50;;;;;;;0.95;0.50;;;;;;;15.85;42.55;101033.81;4978291;28;20026;-77
2023/03/11 06:14:16;;;;;;;0.80;0.50;;;;;;;15.85;42.45;101028.63;4962386;28;20023;-77
2023/03/11 06:16:41;;;;;;;0.70;0.40;;;;;;;15.85;42.57;101031.22;4962198;28;20062;-77
2023/03/11 06:19:07;;;;;;;1.08;0.55;;;;;;;15.87;42.57;101033.81;4977777;28;20154;-77
2023/03/11 06:21:32;;;;;;;1.05;0.52;;;;;;;15.88;42.57;101038.16;4977623;28;20038;-77
2023/03/11 06:23:58;;;;;;;1.02;0.55;;;;;;;15.89;42.57;101040.72;4977301;28;20492;-77
2023/03/11 06:26:23;;;;;;;0.50;0.40;;;;;;;15.89;42.46;101040.72;4960474;28;20031;-77
2023/03/11 06:28:50;;;;;;;1.65;0.63;;;;;;;15.89;42.34;101037.28;4976864;28;20041;-77
2023/03/11 06:31:24;;;;;;;1.33;0.60;;;;;;;15.90;42.37;101046.81;4976590;28;20030;-77
2023/03/11 06:33:50;;;;;;;1.33;0.60;;;;;;;15.90;42.40;101049.41;4976755;28;20033;-77
2023/03/11 06:36:18;;;;;;;1.25;0.50;;;;;;;15.93;42.34;101049.41;4977810;28;20465;-77
2023/03/11 06:38:45;;;;;;;0.90;0.52;;;;;;;15.95;42.39;101048.53;4977887;28;20469;-77
2023/03/11 06:41:11;;;;;;;1.27;0.70;;;;;;;15.98;42.20;101051.13;4976182;28;20034;-76
2023/03/11 06:43:37;;;;;;;1.08;0.60;;;;;;;16.00;42.42;101062.41;4976037;28;20023;-77
2023/03/11 06:46:16;;;;;;;1.05;0.50;;;;;;;16.03;42.08;101064.97;4975560;28;20030;-77
2023/03/11 06:48:41;;;;;;;0.75;0.43;;;;;;;16.05;42.23;101059.78;4975715;28;20018;-77
2023/03/11 06:51:08;;;;;;;0.80;0.60;;;;;;;16.05;42.19;101067.59;4975884;28;20027;-77
2023/03/11 06:53:33;;;;;;;0.85;0.50;;;;;;;16.07;42.04;101068.44;4976035;28;20027;-77
2023/03/11 06:56:09;;;;;;;1.48;0.60;;;;;;;16.10;42.12;101080.56;4959721;28;20385;-77
2023/03/11 06:58:38;;;;;;;1.17;0.40;;;;;;;16.09;42.10;101084.91;4976799;28;20026;-77
2023/03/11 07:01:05;;;;;;;0.88;0.47;;;;;;;16.10;42.02;101084.00;4979070;28;20047;-77
2023/03/11 07:03:31;;;;;;;1.30;0.70;;;;;;;16.11;42.02;101092.66;4983601;28;20039;-77
2023/03/11 07:05:57;;;;;;;1.23;0.60;;;;;;;16.14;42.07;101090.09;4983867;28;20478;-78
2023/03/11 07:08:22;;;;;;;1.48;0.70;;;;;;;16.14;41.93;101095.28;4984938;28;20022;-78
2023/03/11 07:11:08;;;;;;;1.05;0.40;;;;;;;16.16;42.00;101097.00;4964352;28;20063;-77
2023/03/11 07:13:35;;;;;;;0.77;0.40;;;;;;;16.17;41.92;101103.06;4978542;28;20023;-78
2023/03/11 07:16:04;;;;;;;1.67;0.50;;;;;;;16.17;42.05;101100.47;4960799;28;20030;-78
2023/03/11 07:18:33;;;;;;;0.68;0.43;;;;;;;16.18;41.90;101094.41;4978119;28;20081;-77
2023/03/11 07:21:01;;;;;;;1.52;0.52;;;;;;;16.21;41.86;101091.81;4961069;28;20031;-77
2023/03/11 07:23:27;;;;;;;0.70;0.50;;;;;;;16.23;41.81;101095.28;4977155;28;20026;-77
2023/03/11 07:25:54;;;;;;;0.80;0.40;;;;;;;16.25;41.56;101096.16;4959590;28;20477;-77
2023/03/11 07:28:20;;;;;;;0.70;0.40;;;;;;;16.27;41.73;101091.81;4959645;28;20030;-77
2023/03/11 07:30:48;;;;;;;1.15;0.70;;;;;;;16.36;41.55;101096.16;4944920;28;20026;-77
2023/03/11 07:33:14;;;;;;;1.05;0.50;;;;;;;16.51;41.19;101092.69;4976586;28;20026;-76
2023/03/11 07:35:40;;;;;;;1.05;0.40;;;;;;;16.79;40.70;101098.69;4960006;28;20366;-77
2023/03/11 07:38:05;;;;;;;1.45;0.60;;;;;;;16.89;40.50;101092.63;4975808;28;20552;-77
2023/03/11 07:40:31;;;;;;;0.77;0.50;;;;;;;16.74;40.90;101096.09;4959370;28;20031;-77
2023/03/11 07:42:57;;;;;;;0.90;0.50;;;;;;;16.66;40.97;101103.06;4959527;28;20496;-77
2023/03/11 07:45:23;;;;;;;0.80;0.50;;;;;;;16.63;41.12;101108.22;4959852;28;20031;-77
2023/03/11 07:47:48;;;;;;;1.08;0.60;;;;;;;16.63;40.97;101109.09;4976764;28;20053;-77
2023/03/11 07:50:15;;;;;;;1.48;0.55;;;;;;;16.60;41.06;101109.09;4959199;28;20529;-77
2023/03/11 07:52:41;;;;;;;1.05;0.47;;;;;;;16.59;40.92;101110.00;4958730;28;20030;-77
2023/03/11 07:55:09;;;;;;;1.10;0.52;;;;;;;16.56;41.15;101112.56;4958309;28;20126;-77
2023/03/11 07:57:34;;;;;;;0.80;0.50;;;;;;;17.58;39.29;101110.56;4958238;28;20389;-78
2023/03/11 08:00:00;;;;;;;0.80;0.50;;;;;;;18.68;36.92;101108.94;4974602;28;20477;-78
2023/03/11 08:02:26;;;;;;;2.95;0.65;;;;;;;18.98;35.90;101119.94;4941835;28;20062;-78
2023/03/11 08:04:51;;;;;;;0.68;0.50;;;;;;;19.05;35.96;101115.50;4958450;28;20031;-77
2023/03/11 08:07:17;;;;;;;1.35;0.70;;;;;;;18.97;36.04;101123.44;4975629;28;20070;-78
2023/03/11 08:09:42;;;;;;;1.17;0.55;;;;;;;18.78;36.42;101129.72;4957948;28;20125;-78
2023/03/11 08:12:08;;;;;;;1.30;0.57;;;;;;;18.58;36.90;101127.28;4957926;28;20117;-77
2023/03/11 08:14:33;;;;;;;0.65;0.50;;;;;;;18.50;37.07;101132.53;4973787;28;20030;-78
2023/03/11 08:16:59;;;;;;;1.05;0.60;;;;;;;18.41;37.40;101132.63;4957828;28;20031;-77
2023/03/11 08:19:24;;;;;;;0.82;0.50;;;;;;;18.36;37.48;101137.03;4958130;28;20055;-78
2023/03/11 08:21:49;;;;;;;1.17;0.50;;;;;;;18.30;37.43;101143.97;4973959;28;20460;-77
2023/03/11 08:24:15;;;;;;;0.52;0.50;;;;;;;18.23;37.62;101139.72;4973973;28;20062;-77
2023/03/11 08:26:41;;;;;;;0.80;0.50;;;;;;;18.19;37.75;101138.00;4959608;28;20039;-77
2023/03/11 08:29:06;;;;;;;0.85;0.50;;;;;;;18.16;38.00;101150.16;4977158;28;20033;-77
2023/03/11 08:31:33;;;;;;;1.02;0.60;;;;;;;18.21;37.61;101154.47;4975681;28;20474;-77
2023/03/11 08:34:10;;;;;;;0.90;0.50;;;;;;;18.20;37.84;101152.72;4975216;28;20488;-77
2023/03/11 08:36:35;;;;;;;0.70;0.50;;;;;;;18.21;37.88;101151.88;4958243;28;20031;-77
2023/03/11 08:39:05;;;;;;;1.35;0.50;;;;;;;18.10;37.99;101153.69;4958053;28;20034;-77
2023/03/11 08:41:31;;;;;;;0.80;0.50;;;;;;;17.97;38.15;101162.47;4958656;28;20030;-80
2023/03/11 08:44:00;;;;;;;2.40;0.68;;;;;;;18.08;39.18;101156.31;4966917;28;20027;-83
2023/03/11 08:47:22;;;;;;;1.77;0.60;;;;;;;18.28;39.96;101161.38;4986390;28;20081;-80
2023/03/11 08:49:55;;;;;;;5.90;1.80;;;;;;;18.45;40.00;101161.25;4991205;28;20441;-81
2023/03/11 08:52:28;;;;;;;6.97;1.90;;;;;;;18.54;39.97;101172.47;4995761;28;20031;-81
2023/03/11 08:55:51;;;;;;;8.30;2.28;;;;;;;18.59;40.28;101171.53;4995460;28;20468;-81
2023/03/11 08:58:22;;;;;;;18.05;3.80;;;;;;;18.46;40.52;101177.75;4926497;29;20020;-79
2023/03/11 09:01:39;;;;;;;15.07;3.33;;;;;;;18.45;40.39;101173.41;4914455;29;20027;-82
2023/03/11 09:04:05;;;;;;;7.15;2.47;;;;;;;18.41;40.05;101182.13;5048937;23;20057;-80
2023/03/11 09:06:53;;;;;;;9.48;2.10;;;;;;;18.40;40.59;101175.16;5044479;28;20067;-80
2023/03/11 09:09:42;;;;;;;8.80;1.98;;;;;;;18.46;40.32;101177.75;5067453;28;20020;-82
2023/03/11 09:13:02;;;;;;;;;;;;;;;;;;;;;
2023/03/11 09:21:30;;;;;;;7.40;1.83;;;;;;;18.21;41.02;101185.75;5163078;22;20056;-83
2023/03/11 09:27:41;;;;;;;4.57;1.77;;;;;;;18.03;41.55;101185.84;5035801;28;20074;-84
2023/03/11 09:30:49;;;;;;;9.48;1.95;;;;;;;17.99;41.34;101192.81;5018507;28;20045;-81
2023/03/11 09:34:09;;;;;;;3.20;1.30;;;;;;;18.01;41.33;101185.00;4975612;29;20078;-84
2023/03/11 09:37:07;;;;;;;4.53;1.40;;;;;;;17.99;41.25;101182.41;4956546;29;20047;-83
2023/03/11 09:43:27;;;;;;;3.97;1.30;;;;;;;18.03;41.45;101178.91;4920066;29;20112;-80
2023/03/11 09:46:18;;;;;;;4.93;1.30;;;;;;;18.05;41.34;101168.47;4936497;29;20031;-80
2023/03/11 09:49:05;;;;;;;2.90;1.30;;;;;;;18.08;41.06;101184.09;4963632;28;20043;-80
2023/03/11 09:51:39;;;;;;;4.25;1.40;;;;;;;18.04;41.54;101188.44;4949688;28;20038;-79
2023/03/11 10:01:00;;;;;;;5.32;1.40;;;;;;;17.99;41.51;101191.97;4990301;28;20050;-83
2023/03/11 10:04:16;;;;;;;;;;;;;;;;;;;;;
2023/03/11 10:07:25;;;;;;;;;;;;;;;;;;;;;
2023/03/11 10:16:13;;;;;;;5.90;1.25;;;;;;;17.00;45.70;101184.44;5565101;23;20053;-82
2023/03/11 10:18:43;;;;;;;3.78;1.25;;;;;;;17.00;46.38;101181.84;5065836;28;20025;-81
2023/03/11 10:50:29;;;;;;;2.42;0.90;;;;;;;16.66;49.12;101194.84;5051738;28;20080;-83
2023/03/11 11:24:19;;;;;;;3.78;0.70;;;;;;;16.79;48.16;101221.72;5145705;22;20388;-78
2023/03/11 12:18:33;;;;;;;2.50;0.80;;;;;;;17.10;47.91;101202.66;5105482;22;20058;-84
2023/03/11 12:39:18;;;;;;;2.28;0.57;;;;;;;17.35;46.88;101219.06;5282524;22;20285;-84
2023/03/11 12:41:44;;;;;;;2.45;0.63;;;;;;;17.36;46.80;101218.22;5018244;28;20077;-84
2023/03/11 12:44:30;;;;;;;1.92;0.80;;;;;;;17.40;46.83;101217.34;5017181;28;20053;-82
2023/03/11 12:46:58;;;;;;;0.93;0.60;;;;;;;17.48;46.38;101220.75;5017927;28;20045;-83
2023/03/11 12:49:32;;;;;;;2.13;0.65;;;;;;;17.48;46.40;101218.16;5009644;28;20014;-82
2023/03/11 12:52:13;;;;;;;1.15;0.60;;;;;;;17.45;47.05;101221.63;5016560;28;20038;-82
2023/03/11 12:54:46;;;;;;;1.23;0.65;;;;;;;17.43;46.92;101219.91;5014501;28;20006;-84
2023/03/11 12:57:15;;;;;;;3.97;0.70;;;;;;;17.41;46.96;101213.84;5015603;28;20029;-84
2023/03/11 12:59:50;;;;;;;3.88;0.65;;;;;;;17.36;47.05;101210.41;5015203;28;20283;-78
2023/03/11 13:02:46;;;;;;;4.85;0.57;;;;;;;17.32;47.15;101208.69;4997571;28;20428;-78
2023/03/11 13:05:48;;;;;;;11.75;1.10;;;;;;;17.27;49.78;101209.56;5021138;28;20030;-77
2023/03/11 13:08:28;;;;;;;6.90;0.80;;;;;;;17.19;49.04;101211.28;5015613;28;20480;-78
2023/03/11 13:10:56;;;;;;;9.43;0.82;;;;;;;17.16;50.56;101210.41;4998017;28;20033;-78
2023/03/11 13:13:32;;;;;;;3.80;0.90;;;;;;;17.11;48.72;101217.38;4982129;28;20041;-79
2023/03/11 13:16:17;;;;;;;10.43;2.72;;;;;;;17.02;49.45;101208.72;5000424;28;20053;-79
2023/03/11 13:18:47;;;;;;;10.40;0.80;;;;;;;16.99;49.37;101213.06;5000231;28;20484;-78
2023/03/11 13:21:31;;;;;;;2.80;0.77;;;;;;;16.98;49.53;101206.97;5000463;28;20041;-78
2023/03/11 13:24:18;;;;;;;3.90;0.95;;;;;;;17.00;49.65;101209.59;5017979;28;20380;-79
2023/03/11 13:27:07;;;;;;;3.63;0.90;;;;;;;17.04;48.98;101221.72;4999873;28;20026;-78
2023/03/11 13:30:09;;;;;;;2.33;0.73;;;;;;;17.05;48.54;101208.72;5017697;28;20030;-78
2023/03/11 13:32:53;;;;;;;7.53;0.93;;;;;;;16.91;54.31;101214.81;5017655;28;20105;-78
2023/03/11 13:35:53;;;;;;;2.83;0.85;;;;;;;16.85;55.75;101221.75;5000451;28;20026;-79
2023/03/11 13:38:42;;;;;;;2.72;0.70;;;;;;;16.45;59.54;101219.09;5000851;28;20381;-79
2023/03/11 13:41:40;;;;;;;3.63;0.80;;;;;;;16.43;58.24;101219.94;5009858;28;20026;-81
2023/03/11 13:44:18;;;;;;;3.03;0.90;;;;;;;16.49;57.43;101232.09;5009673;28;20032;-81
2023/03/11 13:46:48;;;;;;;4.68;1.00;;;;;;;16.52;57.16;101224.28;5011164;28;20025;-81
2023/03/11 13:49:38;;;;;;;2.92;0.82;;;;;;;16.55;56.28;101232.97;5014087;28;20102;-80
2023/03/11 13:52:09;;;;;;;6.30;0.80;;;;;;;16.56;56.41;101237.28;5014221;28;20037;-81
2023/03/11 13:54:47;;;;;;;4.57;1.13;;;;;;;16.60;56.26;101241.63;5011229;28;20112;-81
2023/03/11 13:57:24;;;;;;;3.22;0.80;;;;;;;16.64;55.10;101235.56;5011047;28;20030;-81
2023/03/11 13:59:57;;;;;;;3.08;0.98;;;;;;;16.68;55.04;101236.44;5009463;28;20048;-83
2023/03/11 14:02:35;;;;;;;2.58;0.88;;;;;;;16.70;54.36;101239.03;5015794;28;20072;-79
2023/03/11 14:05:14;;;;;;;2.83;0.90;;;;;;;16.73;54.13;101236.44;5015650;28;20022;-82
2023/03/11 14:07:40;;;;;;;2.50;0.85;;;;;;;16.73;55.13;101241.63;5036288;28;20137;-82
2023/03/11 14:10:27;;;;;;;4.13;1.00;;;;;;;16.72;54.89;101242.50;5014990;28;20045;-81
2023/03/11 14:13:27;;;;;;;2.70;0.80;;;;;;;16.72;54.94;101235.56;5009914;28;20026;-80
2023/03/11 14:15:52;;;;;;;5.55;1.00;;;;;;;16.74;54.50;101243.34;4999211;28;20042;-81
2023/03/11 14:18:36;;;;;;;2.45;0.90;;;;;;;16.77;54.53;101249.44;5017237;28;20034;-81
2023/03/11 14:21:04;;;;;;;5.93;1.00;;;;;;;16.79;53.02;101254.66;5021228;28;20029;-81
2023/03/11 14:23:35;;;;;;;5.78;1.00;;;;;;;16.80;54.24;101246.84;5020377;28;20026;-82
2023/03/11 14:26:12;;;;;;;2.78;0.93;;;;;;;16.82;53.39;101252.91;5021681;28;20022;-82
2023/03/11 14:28:42;;;;;;;2.92;0.77;;;;;;;16.82;53.92;101252.91;5022719;28;20057;-82
2023/03/11 14:31:35;;;;;;;1.63;0.75;;;;;;;16.84;53.45;101253.78;5022825;28;20121;-82